createdAt,value
2023-01-17T00:05:05.039Z,95689.63
2023-01-17T00:07:50.838Z,95681.38
2023-01-17T00:12:56.142Z,95703.09
2023-01-17T00:15:23.809Z,95695.09
2023-01-17T00:17:51.209Z,95699.72
2023-01-17T00:20:41.249Z,95708.00
2023-01-17T00:23:30.599Z,95700.25
2023-01-17T00:26:03.232Z,95705.69
2023-01-17T00:28:40.535Z,95702.06
2023-01-17T00:31:08.837Z,95706.72
2023-01-17T00:33:36.057Z,95714.47
2023-01-17T00:36:04.123Z,95715.00
2023-01-17T00:38:33.381Z,95712.66
2023-01-17T00:41:06.158Z,95719.66
2023-01-17T00:43:51.507Z,95716.81
2023-01-17T00:46:37.698Z,95725.84
2023-01-17T00:49:24.171Z,95736.69
2023-01-17T00:52:09.999Z,95742.63
2023-01-17T00:54:55.294Z,95748.09
2023-01-17T00:57:40.408Z,95757.88
2023-01-17T01:00:26.550Z,95765.63
2023-01-17T01:03:11.663Z,95766.19
2023-01-17T01:05:57.204Z,95750.16
2023-01-17T01:08:45.146Z,95758.66
2023-01-17T01:11:35.285Z,95764.09
2023-01-17T01:17:06.036Z,95759.44
2023-01-17T01:19:52.156Z,95770.28
2023-01-17T01:22:37.144Z,95780.34
2023-01-17T01:25:22.519Z,95776.97
2023-01-17T01:28:07.387Z,95781.38
2023-01-17T01:30:52.683Z,95777.53
2023-01-17T01:35:52.812Z,95782.41
2023-01-17T01:38:22.652Z,95780.38
2023-01-17T01:40:55.003Z,95777.25
2023-01-17T01:43:50.393Z,95777.25
2023-01-17T01:46:29.993Z,95790.91
2023-01-17T01:49:02.101Z,95800.50
2023-01-17T01:51:35.351Z,95792.22
2023-01-17T01:54:07.482Z,95797.66
2023-01-17T01:56:34.217Z,95807.47
2023-01-17T01:59:04.133Z,95799.94
2023-01-17T02:01:31.702Z,95806.41
2023-01-17T02:03:58.756Z,95805.44
2023-01-17T02:06:30.860Z,95813.66
2023-01-17T02:09:01.784Z,95808.75
2023-01-17T02:11:28.298Z,95813.97
2023-01-17T02:13:55.076Z,95818.88
2023-01-17T02:16:44.340Z,95816.78
2023-01-17T02:19:48.199Z,95814.72
2023-01-17T02:22:36.491Z,95815.00
2023-01-17T02:25:23.771Z,95812.66
2023-01-17T02:28:05.022Z,95819.41
2023-01-17T02:30:39.440Z,95816.50
2023-01-17T02:33:24.630Z,95811.09
2023-01-17T02:36:10.183Z,95818.59
2023-01-17T02:39:13.801Z,95815.22
2023-01-17T02:41:46.115Z,95814.44
2023-01-17T02:46:50.607Z,95816.81
2023-01-17T02:55:13.284Z,95816.75
2023-01-17T03:01:06.384Z,95811.28
2023-01-17T03:03:52.975Z,95812.06
2023-01-17T03:06:40.943Z,95817.72
2023-01-17T03:09:09.421Z,95823.16
2023-01-17T03:11:36.310Z,95818.75
2023-01-17T03:14:03.472Z,95828.25
2023-01-17T03:16:33.499Z,95835.25
2023-01-17T03:19:00.569Z,95838.94
2023-01-17T03:21:27.568Z,95845.63
2023-01-17T03:23:54.525Z,95851.56
2023-01-17T03:28:51.359Z,95853.13
2023-01-17T03:33:47.682Z,95870.88
2023-01-17T03:38:43.183Z,95863.16
2023-01-17T03:41:10.484Z,95879.66
2023-01-17T03:43:38.092Z,95873.69
2023-01-17T03:48:46.789Z,95883.44
2023-01-17T03:51:13.536Z,95880.31
2023-01-17T03:53:40.630Z,95878.56
2023-01-17T03:56:10.332Z,95879.56
2023-01-17T03:58:37.208Z,95888.91
2023-01-17T04:01:04.121Z,95883.28
2023-01-17T04:03:31.374Z,95895.84
2023-01-17T04:08:24.980Z,95896.66
2023-01-17T04:10:51.699Z,95899.75
2023-01-17T04:15:50.937Z,95898.34
2023-01-17T04:18:20.195Z,95902.44
2023-01-17T04:20:47.258Z,95907.19
2023-01-17T04:28:07.452Z,95911.47
2023-01-17T04:30:34.421Z,95918.94
2023-01-17T04:33:01.367Z,95914.00
2023-01-17T04:35:31.130Z,95914.72
2023-01-17T04:37:57.956Z,95918.56
2023-01-17T04:40:25.146Z,95923.19
2023-01-17T04:42:52.291Z,95930.25
2023-01-17T04:45:19.403Z,95935.72
2023-01-17T04:47:46.216Z,95934.81
2023-01-17T04:52:40.643Z,95937.59
2023-01-17T04:55:07.998Z,95944.16
2023-01-17T04:57:34.844Z,95944.94
2023-01-17T05:00:01.727Z,95944.00
2023-01-17T05:02:28.573Z,95959.22
2023-01-17T05:04:55.346Z,95962.06
2023-01-17T05:07:21.968Z,95968.84
2023-01-17T05:09:48.737Z,95970.81
2023-01-17T05:14:41.992Z,95974.69
2023-01-17T05:17:11.225Z,95973.94
2023-01-17T05:19:38.185Z,95974.19
2023-01-17T05:24:45.815Z,95983.22
2023-01-17T05:29:40.646Z,95982.38
2023-01-17T05:32:07.682Z,95973.13
2023-01-17T05:34:35.218Z,95977.94
2023-01-17T05:37:02.280Z,95964.66
2023-01-17T05:39:31.155Z,95966.78
2023-01-17T05:41:58.514Z,95972.16
2023-01-17T05:44:27.548Z,95964.75
2023-01-17T05:46:54.613Z,95967.94
2023-01-17T05:49:21.359Z,95968.94
2023-01-17T05:51:48.250Z,95972.53
2023-01-17T05:56:41.768Z,95976.84
2023-01-17T05:59:08.566Z,95981.59
2023-01-17T06:01:35.388Z,95992.53
2023-01-17T06:04:02.145Z,95993.31
2023-01-17T06:06:30.093Z,96002.59
2023-01-17T06:08:57.782Z,95996.25
2023-01-17T06:11:24.483Z,96010.75
2023-01-17T06:13:51.393Z,96010.38
2023-01-17T06:16:26.861Z,96004.50
2023-01-17T06:18:53.869Z,96000.28
2023-01-17T06:21:22.770Z,95999.72
2023-01-17T06:23:49.482Z,96000.16
2023-01-17T06:28:43.228Z,95985.06
2023-01-17T06:31:10.216Z,95989.88
2023-01-17T06:33:39.085Z,95990.19
2023-01-17T06:36:06.244Z,95987.84
2023-01-17T06:38:33.377Z,95989.88
2023-01-17T06:41:04.675Z,95995.94
2023-01-17T06:43:33.792Z,95994.19
2023-01-17T06:46:04.692Z,95986.44
2023-01-17T06:48:31.323Z,95997.00
2023-01-17T06:50:58.248Z,95996.75
2023-01-17T06:53:28.108Z,96000.97
2023-01-17T06:55:57.825Z,95998.31
2023-01-17T06:58:24.740Z,96005.09
2023-01-17T07:00:51.987Z,96007.72
2023-01-17T07:03:24.411Z,96009.38
2023-01-17T07:05:51.664Z,96012.84
2023-01-17T07:08:20.451Z,96014.28
2023-01-17T07:10:48.078Z,96012.63
2023-01-17T07:15:42.156Z,96028.22
2023-01-17T07:18:08.857Z,96024.00
2023-01-17T07:20:35.402Z,96027.44
2023-01-17T07:23:02.000Z,96027.44
2023-01-17T07:25:28.611Z,96024.97
2023-01-17T07:27:57.574Z,96013.22
2023-01-17T07:30:24.936Z,96016.75
2023-01-17T07:32:55.242Z,96026.44
2023-01-17T07:35:23.148Z,96026.84
2023-01-17T07:37:50.639Z,96031.34
2023-01-17T07:40:18.664Z,96025.34
2023-01-17T07:42:45.770Z,96022.22
2023-01-17T07:47:40.836Z,96027.66
2023-01-17T07:50:08.948Z,96018.59
2023-01-17T07:52:35.793Z,96005.97
2023-01-17T07:55:05.331Z,96002.31
2023-01-17T07:57:35.338Z,95999.13
2023-01-17T08:00:05.435Z,96000.41
2023-01-17T08:02:32.070Z,95993.53
2023-01-17T08:05:05.767Z,96009.28
2023-01-17T08:07:32.904Z,96013.59
2023-01-17T08:10:07.276Z,96009.59
2023-01-17T08:12:36.005Z,96009.41
2023-01-17T08:15:15.563Z,96010.78
2023-01-17T08:17:47.095Z,96008.25
2023-01-17T08:22:51.360Z,96015.69
2023-01-17T08:25:24.077Z,96012.09
2023-01-17T08:27:52.177Z,96007.88
2023-01-17T08:30:21.729Z,96007.97
2023-01-17T08:32:48.642Z,96011.91
2023-01-17T08:37:45.588Z,96011.59
2023-01-17T08:40:20.669Z,96012.72
2023-01-17T08:42:57.779Z,96004.75
2023-01-17T08:45:24.931Z,96000.16
2023-01-17T08:47:52.408Z,95997.44
2023-01-17T08:50:23.424Z,95996.88
2023-01-17T08:52:59.085Z,96000.03
2023-01-17T08:55:29.973Z,95995.78
2023-01-17T08:57:59.101Z,95998.97
2023-01-17T09:00:27.251Z,96006.19
2023-01-17T09:02:54.253Z,96009.13
2023-01-17T09:05:21.184Z,96009.69
2023-01-17T09:07:48.056Z,96012.13
2023-01-17T09:12:41.771Z,96000.56
2023-01-17T09:15:09.280Z,95996.63
2023-01-17T09:17:38.977Z,96006.28
2023-01-17T09:20:06.566Z,95991.88
2023-01-17T09:22:39.188Z,95990.69
2023-01-17T09:25:09.698Z,95990.63
2023-01-17T09:27:36.911Z,95994.78
2023-01-17T09:30:07.943Z,96002.56
2023-01-17T09:32:34.999Z,96000.28
2023-01-17T09:35:07.534Z,95996.91
2023-01-17T09:37:35.883Z,96000.19
2023-01-17T09:40:05.626Z,95992.81
2023-01-17T09:42:41.217Z,96003.69
2023-01-17T09:45:18.776Z,95996.94
2023-01-17T09:47:52.667Z,95992.91
2023-01-17T09:50:34.404Z,95987.25
2023-01-17T09:53:23.389Z,95987.59
2023-01-17T09:56:09.360Z,95985.28
2023-01-17T09:59:33.184Z,95985.78
2023-01-17T10:02:32.158Z,95982.63
2023-01-17T10:06:03.913Z,95984.84
2023-01-17T10:09:00.955Z,95985.34
2023-01-17T10:11:40.081Z,95978.94
2023-01-17T10:14:37.307Z,95976.50
2023-01-17T10:17:54.552Z,95977.63
2023-01-17T10:20:47.168Z,95975.16
2023-01-17T10:23:40.675Z,95978.97
2023-01-17T10:26:35.052Z,95965.22
2023-01-17T10:32:02.436Z,95969.91
2023-01-17T10:34:46.783Z,95958.91
2023-01-17T10:37:34.007Z,95960.81
2023-01-17T10:40:28.907Z,95963.22
2023-01-17T10:43:03.366Z,95966.81
2023-01-17T10:45:55.373Z,95971.56
2023-01-17T10:48:36.565Z,95960.47
2023-01-17T10:51:10.651Z,95959.41
2023-01-17T10:54:01.788Z,95963.53
2023-01-17T10:56:39.790Z,95953.56
2023-01-17T10:59:30.658Z,95962.50
2023-01-17T11:02:01.293Z,95954.91
2023-01-17T11:04:36.799Z,95955.59
2023-01-17T11:07:27.445Z,95947.88
2023-01-17T11:09:58.862Z,95947.69
2023-01-17T11:12:47.588Z,95937.78
2023-01-17T11:15:17.835Z,95940.34
2023-01-17T11:18:01.069Z,95929.53
2023-01-17T11:20:39.265Z,95925.28
2023-01-17T11:23:21.729Z,95922.63
2023-01-17T11:26:02.748Z,95927.41
2023-01-17T11:28:34.866Z,95910.53
2023-01-17T11:31:35.510Z,95903.44
2023-01-17T11:34:28.248Z,95896.78
2023-01-17T11:37:19.666Z,95893.59
2023-01-17T11:39:50.401Z,95903.19
2023-01-17T11:42:38.547Z,95890.28
2023-01-17T11:45:29.242Z,95883.56
2023-01-17T11:50:44.237Z,95880.97
2023-01-17T11:53:22.341Z,95882.78
2023-01-17T11:58:43.466Z,95871.16
2023-01-17T12:01:26.174Z,95866.75
2023-01-17T12:04:02.323Z,95855.84
2023-01-17T12:06:56.377Z,95852.78
2023-01-17T12:10:01.944Z,95859.69
2023-01-17T12:12:56.044Z,95859.69
2023-01-17T12:15:31.888Z,95869.81
2023-01-17T12:18:28.841Z,95868.25
2023-01-17T12:23:49.195Z,95864.56
2023-01-17T12:26:29.742Z,95857.44
2023-01-17T12:29:03.378Z,95846.22
2023-01-17T12:31:35.138Z,95857.66
2023-01-17T12:34:24.948Z,95862.84
2023-01-17T12:37:06.446Z,95859.03
2023-01-17T12:39:44.748Z,95852.34
2023-01-17T12:42:24.565Z,95858.50
2023-01-17T12:45:04.525Z,95852.06
2023-01-17T12:47:36.338Z,95848.41
2023-01-17T12:50:24.802Z,95841.31
2023-01-17T12:53:05.183Z,95842.50
2023-01-17T12:55:48.454Z,95844.31
2023-01-17T12:58:20.894Z,95825.78
2023-01-17T13:00:54.509Z,95822.81
2023-01-17T13:03:47.435Z,95811.16
2023-01-17T13:06:58.853Z,95812.94
2023-01-17T13:09:31.138Z,95803.22
2023-01-17T13:12:09.988Z,95802.28
2023-01-17T13:14:36.573Z,95812.25
2023-01-17T13:17:23.297Z,95821.41
2023-01-17T13:20:08.465Z,95835.72
2023-01-17T13:22:37.451Z,95819.97
2023-01-17T13:25:13.175Z,95816.75
2023-01-17T13:28:08.763Z,95812.56
2023-01-17T13:31:13.635Z,95802.25
2023-01-17T13:33:55.178Z,95801.38
2023-01-17T13:37:02.390Z,95793.88
2023-01-17T13:39:45.630Z,95792.69
2023-01-17T13:44:51.225Z,95805.75
2023-01-17T13:47:17.623Z,95811.19
2023-01-17T13:49:45.560Z,95800.00
2023-01-17T13:52:33.443Z,95793.44
2023-01-17T13:55:07.102Z,95781.50
2023-01-17T13:57:46.174Z,95781.69
2023-01-17T14:00:47.344Z,95784.19
2023-01-17T14:03:14.134Z,95775.44
2023-01-17T14:05:41.288Z,95773.47
2023-01-17T14:08:22.134Z,95780.38
2023-01-17T14:10:51.960Z,95774.66
2023-01-17T14:13:39.471Z,95769.34
2023-01-17T14:16:27.765Z,95767.63
2023-01-17T14:18:55.889Z,95755.75
2023-01-17T14:21:27.408Z,95751.63
2023-01-17T14:24:18.345Z,95749.34
2023-01-17T14:26:59.254Z,95756.84
2023-01-17T14:29:54.978Z,95754.25
2023-01-17T14:32:25.306Z,95739.53
2023-01-17T14:34:53.570Z,95746.75
2023-01-17T14:37:32.658Z,95750.66
2023-01-17T14:40:00.743Z,95747.53
2023-01-17T14:42:30.825Z,95744.16
2023-01-17T14:45:08.169Z,95732.03
2023-01-17T14:47:42.029Z,95727.13
2023-01-17T14:50:17.838Z,95719.63
2023-01-17T14:52:47.257Z,95713.44
2023-01-17T14:57:56.714Z,95712.66
2023-01-17T15:00:30.846Z,95712.66
2023-01-17T15:02:59.568Z,95709.56
2023-01-17T15:05:28.899Z,95709.56
2023-01-17T15:07:57.975Z,95721.97
2023-01-17T15:10:31.327Z,95708.53
2023-01-17T15:13:09.525Z,95716.28
2023-01-17T15:15:39.789Z,95716.28
2023-01-17T15:18:20.237Z,95718.09
2023-01-17T15:20:58.197Z,95718.63
2023-01-17T15:26:01.546Z,95708.53
2023-01-17T15:28:29.239Z,95708.53
2023-01-17T15:31:17.451Z,95713.44
2023-01-17T15:33:47.680Z,95718.59
2023-01-17T15:39:02.404Z,95711.63
2023-01-17T15:41:44.868Z,95716.50
2023-01-17T15:44:49.700Z,95712.91
2023-01-17T15:47:39.558Z,95714.97
2023-01-17T15:50:25.637Z,95708.25
2023-01-17T15:55:28.780Z,95718.81
2023-01-17T15:57:55.569Z,95709.25
2023-01-17T16:00:37.421Z,95709.25
2023-01-17T16:03:24.553Z,95712.09
2023-01-17T16:05:53.244Z,95708.47
2023-01-17T16:08:26.557Z,95705.13
2023-01-17T16:11:01.797Z,95698.16
2023-01-17T16:16:10.803Z,95702.00
2023-01-17T16:18:37.563Z,95698.16
2023-01-17T16:26:18.413Z,95701.50
2023-01-17T16:28:46.091Z,95705.38
2023-01-17T16:31:17.073Z,95703.53
2023-01-17T16:33:45.911Z,95703.03
2023-01-17T16:36:15.230Z,95708.97
2023-01-17T16:38:45.924Z,95711.56
2023-01-17T16:41:12.931Z,95710.50
2023-01-17T16:43:39.631Z,95712.56
2023-01-17T16:46:06.931Z,95714.13
2023-01-17T16:48:33.606Z,95717.19
2023-01-17T16:51:05.739Z,95718.44
2023-01-17T16:53:32.400Z,95724.41
2023-01-17T16:56:06.461Z,95727.25
2023-01-17T17:01:02.354Z,95732.91
2023-01-17T17:03:29.841Z,95738.09
2023-01-17T17:06:00.999Z,95729.53
2023-01-17T17:08:29.354Z,95733.69
2023-01-17T17:11:06.074Z,95733.19
2023-01-17T17:13:35.780Z,95732.97
2023-01-17T17:16:03.251Z,95727.03
2023-01-17T17:18:29.896Z,95724.19
2023-01-17T17:21:01.954Z,95728.28
2023-01-17T17:23:28.536Z,95726.22
2023-01-17T17:25:56.123Z,95719.03
2023-01-17T17:28:22.688Z,95718.25
2023-01-17T17:30:49.206Z,95724.13
2023-01-17T17:33:15.779Z,95723.59
2023-01-17T17:38:08.929Z,95726.66
2023-01-17T17:40:35.876Z,95725.31
2023-01-17T17:43:02.366Z,95714.94
2023-01-17T17:45:28.862Z,95721.06
2023-01-17T17:47:55.667Z,95718.75
2023-01-17T17:50:24.870Z,95725.97
2023-01-17T17:52:54.915Z,95723.84
2023-01-17T17:55:27.429Z,95731.59
2023-01-17T17:57:55.498Z,95729.66
2023-01-17T18:00:23.187Z,95741.31
2023-01-17T18:02:50.859Z,95734.91
2023-01-17T18:05:17.381Z,95730.09
2023-01-17T18:07:55.523Z,95730.34
2023-01-17T18:10:22.742Z,95731.31
2023-01-17T18:12:49.423Z,95729.69
2023-01-17T18:15:16.245Z,95733.03
2023-01-17T18:17:42.805Z,95737.97
2023-01-17T18:20:09.922Z,95742.06
2023-01-17T18:22:36.760Z,95735.34
2023-01-17T18:25:11.925Z,95732.97
2023-01-17T18:27:53.752Z,95737.88
2023-01-17T18:30:20.692Z,95745.13
2023-01-17T18:35:21.238Z,95743.31
2023-01-17T18:37:47.712Z,95746.66
2023-01-17T18:40:14.259Z,95751.03
2023-01-17T18:42:40.847Z,95747.69
2023-01-17T18:45:08.260Z,95744.06
2023-01-17T18:47:34.854Z,95741.69
2023-01-17T18:50:01.535Z,95738.81
2023-01-17T18:52:28.261Z,95736.44
2023-01-17T18:54:55.018Z,95736.97
2023-01-17T18:57:21.637Z,95732.84
2023-01-17T18:59:48.132Z,95732.06
2023-01-17T19:02:14.863Z,95741.09
2023-01-17T19:07:08.141Z,95733.38
2023-01-17T19:09:35.041Z,95733.38
2023-01-17T19:12:01.709Z,95735.19
2023-01-17T19:14:28.182Z,95742.97
2023-01-17T19:16:55.824Z,95743.75
2023-01-17T19:19:22.410Z,95745.56
2023-01-17T19:21:52.455Z,95748.69
2023-01-17T19:24:18.982Z,95752.56
2023-01-17T19:26:46.391Z,95749.44
2023-01-17T19:29:13.219Z,95761.78
2023-01-17T19:31:42.767Z,95759.97
2023-01-17T19:34:10.589Z,95755.31
2023-01-17T19:39:07.594Z,95766.56
2023-01-17T19:41:37.314Z,95767.84
2023-01-17T19:44:09.079Z,95765.13
2023-01-17T19:46:36.971Z,95773.44
2023-01-17T19:49:05.596Z,95776.47
2023-01-17T19:51:32.356Z,95780.78
2023-01-17T19:54:01.228Z,95783.75
2023-01-17T19:56:28.575Z,95780.94
2023-01-17T19:58:57.039Z,95783.69
2023-01-17T20:01:28.381Z,95781.41
2023-01-17T20:03:57.496Z,95784.41
2023-01-17T20:06:28.759Z,95784.69
2023-01-17T20:08:55.894Z,95783.19
2023-01-17T20:11:24.001Z,95765.72
2023-01-17T20:13:55.835Z,95768.53
2023-01-17T20:16:24.216Z,95758.22
2023-01-17T20:18:51.148Z,95766.16
2023-01-17T20:21:19.970Z,95765.66
2023-01-17T20:23:48.188Z,95773.50
2023-01-17T20:26:17.378Z,95777.31
2023-01-17T20:28:45.728Z,95775.19
2023-01-17T20:31:17.841Z,95777.69
2023-01-17T20:33:47.411Z,95787.47
2023-01-17T20:36:15.886Z,95782.41
2023-01-17T20:38:43.777Z,95778.69
2023-01-17T20:41:27.333Z,95775.53
2023-01-17T20:43:55.930Z,95774.47
2023-01-17T20:46:25.537Z,95782.91
2023-01-17T20:48:57.891Z,95787.31
2023-01-17T20:51:26.387Z,95783.25
2023-01-17T20:53:56.053Z,95779.84
2023-01-17T20:56:24.403Z,95784.41
2023-01-17T21:01:24.619Z,95785.72
2023-01-17T21:03:53.899Z,95776.97
2023-01-17T21:06:24.588Z,95782.41
2023-01-17T21:08:52.100Z,95777.88
2023-01-17T21:13:48.936Z,95785.03
2023-01-17T21:16:20.281Z,95791.31
2023-01-17T21:18:47.931Z,95782.53
2023-01-17T21:21:17.831Z,95782.34
2023-01-17T21:23:45.458Z,95781.78
2023-01-17T21:29:05.472Z,95783.63
2023-01-17T21:31:34.700Z,95782.28
2023-01-17T21:34:04.175Z,95787.53
2023-01-17T21:36:33.620Z,95785.63
2023-01-17T21:39:04.784Z,95777.97
2023-01-17T21:41:35.313Z,95774.31
2023-01-17T21:44:05.219Z,95767.72
2023-01-17T21:46:31.823Z,95773.19
2023-01-17T21:48:58.311Z,95760.84
2023-01-17T21:51:45.264Z,95766.28
2023-01-17T21:54:11.950Z,95778.13
2023-01-17T21:56:56.776Z,95772.34
2023-01-17T21:59:23.594Z,95770.50
2023-01-17T22:01:50.337Z,95771.00
2023-01-17T22:04:16.877Z,95765.84
2023-01-17T22:09:09.981Z,95770.66
2023-01-17T22:14:08.426Z,95769.91
2023-01-17T22:16:35.211Z,95772.50
2023-01-17T22:19:01.677Z,95773.25
2023-01-17T22:23:57.288Z,95776.56
2023-01-17T22:28:53.786Z,95771.03
2023-01-17T22:31:22.610Z,95771.88
2023-01-17T22:38:57.982Z,95763.81
2023-01-17T22:41:31.201Z,95765.56
2023-01-17T22:43:59.929Z,95761.41
2023-01-17T22:46:30.019Z,95766.78
2023-01-17T22:48:57.268Z,95764.75
2023-01-17T22:51:25.125Z,95753.06
2023-01-17T22:53:54.067Z,95758.22
2023-01-17T22:56:26.456Z,95756.25
2023-01-17T22:58:53.277Z,95757.59
2023-01-17T23:01:25.532Z,95754.09
2023-01-17T23:03:55.066Z,95759.34
2023-01-17T23:06:37.118Z,95750.75
2023-01-17T23:09:10.954Z,95759.84
2023-01-17T23:14:30.297Z,95758.28
2023-01-17T23:17:17.965Z,95757.50
2023-01-17T23:22:20.036Z,95755.00
2023-01-17T23:24:51.208Z,95757.09
2023-01-17T23:30:26.154Z,95751.91
2023-01-17T23:32:59.015Z,95749.50
2023-01-17T23:35:31.834Z,95758.28
2023-01-17T23:38:17.035Z,95754.16
2023-01-17T23:41:04.126Z,95758.53
2023-01-17T23:43:31.553Z,95757.94
2023-01-17T23:45:58.130Z,95752.66
2023-01-17T23:50:59.947Z,95754.00
2023-01-17T23:53:27.750Z,95751.22
2023-01-17T23:55:57.005Z,95751.00
2023-01-17T23:58:26.067Z,95748.66
